Time;durP1;ratioP1;P1;durP2;ratioP2;P2;SDS_P1;SDS_P2;PMS_P1;PMS_P2;Temp;Humidity;BMP_temperature;BMP_pressure;BME280_temperature;BME280_humidity;BME280_pressure;Samples;Min_cycle;Max_cycle;Signal;HPM_P1;HPM_P2
2022/05/03 00:02:35;;;;;;;8.68;5.63;;;8.90;99.90;;;;;;5061078;28;20400;-67
2022/05/03 00:05:06;;;;;;;9.80;5.80;;;8.80;99.90;;;;;;5057660;28;20474;-67
2022/05/03 00:07:49;;;;;;;9.50;6.88;;;8.80;99.90;;;;;;5053123;28;20063;-67
2022/05/03 00:10:20;;;;;;;13.63;8.20;;;8.90;99.90;;;;;;5054849;28;20133;-66
2022/05/03 00:13:02;;;;;;;12.63;6.70;;;8.90;99.90;;;;;;5035213;28;20486;-66
2022/05/03 00:15:31;;;;;;;11.43;7.30;;;8.90;99.90;;;;;;5037226;28;20070;-66
2022/05/03 00:22:33;;;;;;;10.55;6.45;;;8.80;99.90;;;;;;4957333;28;20072;-84
2022/05/03 00:29:35;;;;;;;11.45;7.28;;;8.70;99.90;;;;;;4981376;28;20060;-84
2022/05/03 00:40:23;;;;;;;12.07;6.95;;;8.60;99.90;;;;;;4905327;29;20044;-85
2022/05/03 00:47:19;;;;;;;;;;;;;;;;;;;;;
2022/05/03 00:57:41;;;;;;;;;;;8.60;99.90;;;;;;4907484;28;20582;-84
2022/05/03 01:00:47;;;;;;;9.10;5.82;;;8.50;99.90;;;;;;4988312;28;19923;-84
2022/05/03 01:03:40;;;;;;;;;;;;;;;;;;;;;
2022/05/03 01:11:15;;;;;;;10.57;6.88;;;8.30;99.90;;;;;;4914784;29;20414;-83
2022/05/03 01:19:02;;;;;;;11.80;6.35;;;8.30;99.90;;;;;;4909045;29;20047;-84
2022/05/03 01:26:40;;;;;;;;;;;;;;;;;;;;;
2022/05/03 01:29:13;;;;;;;11.35;5.78;;;8.10;99.90;;;;;;4963837;28;20051;-84
2022/05/03 01:35:39;;;;;;;9.57;6.45;;;8.10;99.90;;;;;;4984318;28;20044;-84
2022/05/03 01:38:43;;;;;;;11.07;7.22;;;8.10;99.90;;;;;;5007849;28;20041;-84
2022/05/03 01:42:29;;;;;;;9.02;6.82;;;8.10;99.90;;;;;;5000248;28;20092;-83
2022/05/03 01:46:18;;;;;;;11.93;7.13;;;8.00;99.90;;;;;;4987447;28;20051;-85
2022/05/03 01:52:59;;;;;;;;;;;;;;;;;;;;;
2022/05/03 01:56:32;;;;;;;10.38;7.28;;;7.90;99.90;;;;;;4927779;29;20070;-83
2022/05/03 02:03:38;;;;;;;13.18;7.38;;;7.90;99.90;;;;;;4922098;29;20047;-83
2022/05/03 02:07:06;;;;;;;;;;;;;;;;;;;;;
2022/05/03 02:10:46;;;;;;;;;;;;;;;;;;;;;
2022/05/03 02:22:04;;;;;;;10.40;7.72;;;7.70;99.90;;;;;;4891180;29;20059;-84
2022/05/03 02:25:16;;;;;;;;;;;;;;;;;;;;;
2022/05/03 02:28:10;;;;;;;10.43;7.70;;;7.70;99.90;;;;;;5011462;22;20155;-65
2022/05/03 02:30:39;;;;;;;11.07;7.70;;;7.70;99.90;;;;;;5034756;28;20489;-65
2022/05/03 02:33:19;;;;;;;10.18;7.32;;;7.70;99.90;;;;;;5015214;28;20045;-65
2022/05/03 02:35:49;;;;;;;10.02;7.70;;;7.70;99.90;;;;;;5030441;28;20069;-64
2022/05/03 02:38:20;;;;;;;10.00;7.18;;;7.70;99.90;;;;;;4999998;28;20053;-65
2022/05/03 02:40:53;;;;;;;10.23;7.47;;;7.70;99.90;;;;;;5003314;28;20072;-65
2022/05/03 02:43:25;;;;;;;11.30;7.18;;;7.80;99.90;;;;;;5016963;28;20044;-65
2022/05/03 02:46:00;;;;;;;10.40;6.38;;;7.80;99.90;;;;;;5018244;28;20040;-65
2022/05/03 02:48:43;;;;;;;10.57;7.63;;;7.80;99.90;;;;;;5008147;28;20502;-65
2022/05/03 02:51:09;;;;;;;11.15;7.55;;;7.80;99.90;;;;;;5010553;28;20387;-65
2022/05/03 02:53:51;;;;;;;9.15;7.15;;;7.80;99.90;;;;;;5021144;28;20038;-65
2022/05/03 02:56:42;;;;;;;10.55;7.57;;;7.90;99.90;;;;;;5023086;28;20518;-65
2022/05/03 03:03:03;;;;;;;13.32;8.10;;;8.00;99.90;;;;;;5015670;28;20049;-65
2022/05/03 03:05:30;;;;;;;16.00;7.88;;;8.00;99.90;;;;;;5016348;28;20111;-65
2022/05/03 03:08:02;;;;;;;;;;;8.00;99.90;;;;;;5013493;28;20059;-65
2022/05/03 03:10:52;;;;;;;12.40;8.45;;;8.10;99.90;;;;;;5014532;28;19964;-65
2022/05/03 03:13:38;;;;;;;11.80;8.18;;;8.00;99.90;;;;;;4990817;28;20649;-65
2022/05/03 03:16:07;;;;;;;12.75;8.57;;;8.10;99.90;;;;;;5006335;28;20049;-65
2022/05/03 03:18:34;;;;;;;12.00;7.97;;;8.10;99.90;;;;;;5012936;28;20512;-65
2022/05/03 03:21:06;;;;;;;11.75;7.72;;;8.20;99.90;;;;;;5018789;28;20037;-66
2022/05/03 03:23:32;;;;;;;14.30;8.65;;;8.20;99.90;;;;;;5023572;28;20033;-65
2022/05/03 03:25:58;;;;;;;13.17;9.27;;;8.20;99.90;;;;;;5009653;28;20551;-65
2022/05/03 03:28:24;;;;;;;;;;;8.20;99.90;;;;;;5016747;28;20292;-65
2022/05/03 03:30:51;;;;;;;12.23;8.13;;;8.30;99.90;;;;;;5020395;28;20114;-65
2022/05/03 03:33:20;;;;;;;14.55;9.05;;;8.30;99.90;;;;;;5018510;28;20430;-65
2022/05/03 03:35:46;;;;;;;15.55;9.05;;;8.30;99.90;;;;;;5018118;28;20030;-65
2022/05/03 03:38:15;;;;;;;;;;;8.30;99.90;;;;;;5023349;28;20041;-64
2022/05/03 03:40:45;;;;;;;11.93;8.45;;;8.30;99.90;;;;;;5019501;28;20291;-65
2022/05/03 03:43:12;;;;;;;14.82;9.10;;;8.30;99.90;;;;;;5029287;28;20068;-65
2022/05/03 03:45:38;;;;;;;18.38;9.50;;;8.30;99.90;;;;;;5016506;28;20033;-65
2022/05/03 03:48:05;;;;;;;10.27;7.53;;;8.30;99.90;;;;;;5020984;28;20257;-66
2022/05/03 03:50:31;;;;;;;14.02;8.88;;;8.30;99.90;;;;;;5021539;28;20124;-65
2022/05/03 03:52:57;;;;;;;12.82;8.18;;;8.40;99.90;;;;;;5018323;28;20441;-66
2022/05/03 03:55:23;;;;;;;12.90;8.80;;;8.40;99.90;;;;;;5022617;28;20045;-66
2022/05/03 03:57:50;;;;;;;14.63;8.80;;;8.40;99.90;;;;;;5020401;28;20687;-66
2022/05/03 04:00:16;;;;;;;14.20;8.95;;;8.40;99.90;;;;;;5015340;28;20045;-66
2022/05/03 04:02:45;;;;;;;13.13;9.18;;;8.40;99.90;;;;;;5019126;28;20473;-66
2022/05/03 04:05:22;;;;;;;13.80;8.88;;;8.50;99.90;;;;;;5014389;28;20513;-66
2022/05/03 04:07:48;;;;;;;17.55;8.98;;;8.50;99.90;;;;;;5003358;28;20038;-66
2022/05/03 04:10:14;;;;;;;;;;;8.40;99.90;;;;;;5019863;28;20280;-66
2022/05/03 04:12:41;;;;;;;14.02;9.10;;;8.50;99.90;;;;;;4997675;28;19983;-66
2022/05/03 04:15:10;;;;;;;13.25;9.00;;;8.50;99.90;;;;;;5023978;28;20415;-66
2022/05/03 04:17:35;;;;;;;13.43;9.40;;;8.50;99.90;;;;;;5021816;28;20092;-66
2022/05/03 04:20:02;;;;;;;14.50;9.43;;;8.50;99.90;;;;;;5022037;28;20038;-66
2022/05/03 04:22:32;;;;;;;14.45;9.85;;;8.50;99.90;;;;;;5007437;28;20045;-66
2022/05/03 04:24:59;;;;;;;16.27;10.82;;;8.60;99.90;;;;;;5014912;28;20438;-66
2022/05/03 04:27:27;;;;;;;14.07;9.68;;;8.50;99.90;;;;;;5019559;28;20069;-66
2022/05/03 04:29:53;;;;;;;19.27;11.18;;;8.60;99.90;;;;;;5017828;28;20068;-66
2022/05/03 04:32:19;;;;;;;14.20;9.45;;;8.60;99.90;;;;;;5021412;28;20517;-66
2022/05/03 04:34:45;;;;;;;17.23;10.25;;;8.60;99.90;;;;;;5022991;28;20514;-66
2022/05/03 04:37:11;;;;;;;17.37;11.17;;;8.70;99.90;;;;;;5001373;28;20135;-66
2022/05/03 04:39:37;;;;;;;14.85;10.38;;;8.70;99.90;;;;;;4988483;28;20653;-65
2022/05/03 04:42:03;;;;;;;16.83;10.47;;;8.70;99.90;;;;;;5012469;28;20037;-65
2022/05/03 04:44:29;;;;;;;17.65;11.00;;;8.70;99.90;;;;;;5016128;28;20044;-66
2022/05/03 04:46:54;;;;;;;15.57;10.90;;;8.80;99.90;;;;;;5001416;28;20046;-65
2022/05/03 04:49:20;;;;;;;16.73;10.43;;;8.80;99.90;;;;;;5013381;28;20033;-66
2022/05/03 04:51:45;;;;;;;22.10;11.20;;;8.80;99.90;;;;;;4997237;28;20042;-66
2022/05/03 04:54:11;;;;;;;17.07;10.43;;;8.80;99.90;;;;;;5012003;28;20045;-66
2022/05/03 04:56:37;;;;;;;16.23;10.87;;;8.80;99.90;;;;;;5021236;28;20045;-66
2022/05/03 04:59:03;;;;;;;15.02;10.48;;;8.90;99.90;;;;;;5024497;28;20498;-66
2022/05/03 05:01:29;;;;;;;20.83;11.63;;;8.90;99.90;;;;;;5013348;28;20498;-66
2022/05/03 05:03:55;;;;;;;16.42;11.23;;;8.90;99.90;;;;;;5022959;28;20045;-66
2022/05/03 05:06:21;;;;;;;17.65;12.00;;;8.90;99.90;;;;;;5014053;28;20508;-65
2022/05/03 05:08:47;;;;;;;17.17;11.32;;;9.00;99.90;;;;;;5008763;28;20426;-65
2022/05/03 05:11:13;;;;;;;18.38;10.52;;;9.00;99.90;;;;;;5012801;28;20511;-65
2022/05/03 05:13:38;;;;;;;20.50;11.33;;;9.00;99.90;;;;;;5020024;28;20113;-65
2022/05/03 05:16:05;;;;;;;19.25;11.30;;;9.10;99.90;;;;;;5016684;28;20033;-66
2022/05/03 05:18:31;;;;;;;20.98;12.05;;;9.10;99.90;;;;;;5015311;28;20095;-65
2022/05/03 05:20:57;;;;;;;18.05;11.48;;;9.10;99.90;;;;;;5009582;28;20038;-64
2022/05/03 05:23:23;;;;;;;23.67;11.33;;;9.20;99.90;;;;;;5016332;28;20049;-64
2022/05/03 05:25:51;;;;;;;21.17;13.23;;;9.20;99.90;;;;;;5002836;28;20129;-64
2022/05/03 05:28:18;;;;;;;17.13;11.48;;;9.20;99.90;;;;;;5017442;28;20065;-64
2022/05/03 05:30:44;;;;;;;22.23;12.10;;;9.30;99.90;;;;;;5021161;28;20120;-64
2022/05/03 05:33:10;;;;;;;22.45;13.07;;;9.30;99.90;;;;;;5022379;28;20125;-64
2022/05/03 05:35:36;;;;;;;21.63;12.18;;;9.30;99.90;;;;;;5000862;28;20053;-64
2022/05/03 05:38:02;;;;;;;21.70;13.52;;;9.30;99.90;;;;;;4991305;28;20882;-64
2022/05/03 05:40:28;;;;;;;23.70;13.52;;;9.40;99.90;;;;;;4994308;28;20108;-64
2022/05/03 05:42:54;;;;;;;22.47;12.87;;;9.40;99.90;;;;;;5020248;28;20040;-64
2022/05/03 05:45:19;;;;;;;21.38;13.23;;;9.40;99.90;;;;;;5024422;28;20329;-64
2022/05/03 05:47:45;;;;;;;27.47;13.97;;;9.50;99.90;;;;;;5023931;28;20774;-64
2022/05/03 05:50:11;;;;;;;23.93;14.20;;;9.50;99.90;;;;;;5013883;28;20041;-65
2022/05/03 05:55:22;;;;;;;28.30;13.35;;;9.60;99.90;;;;;;5022748;28;20041;-66
2022/05/03 05:57:48;;;;;;;25.47;14.07;;;9.60;99.90;;;;;;5028535;28;20464;-67
2022/05/03 06:00:14;;;;;;;26.75;14.00;;;9.60;99.90;;;;;;5004224;28;20034;-65
2022/05/03 06:02:40;;;;;;;26.38;15.15;;;9.70;99.90;;;;;;5024649;28;20529;-65
2022/05/03 06:05:06;;;;;;;32.90;16.20;;;9.70;99.90;;;;;;5024992;28;20124;-69
2022/05/03 06:07:32;;;;;;;;;;;9.70;99.90;;;;;;5013349;28;20282;-64
2022/05/03 06:09:58;;;;;;;22.45;12.57;;;9.80;99.90;;;;;;5016740;28;19925;-65
2022/05/03 06:12:23;;;;;;;27.90;15.20;;;9.80;99.90;;;;;;5016019;28;22164;-65
2022/05/03 06:14:49;;;;;;;30.73;15.30;;;9.80;99.90;;;;;;5020815;28;20113;-65
2022/05/03 06:17:15;;;;;;;28.97;13.50;;;9.80;99.90;;;;;;5025941;28;20587;-64
2022/05/03 06:19:40;;;;;;;29.43;14.70;;;9.90;99.90;;;;;;5034877;22;20453;-66
2022/05/03 06:22:06;;;;;;;31.27;15.13;;;9.90;99.90;;;;;;5008901;28;20559;-67
2022/05/03 06:24:31;;;;;;;30.33;14.70;;;10.00;99.90;;;;;;5046631;28;20071;-67
2022/05/03 06:26:58;;;;;;;30.47;14.30;;;9.90;99.90;;;;;;5018469;28;20045;-66
2022/05/03 06:29:24;;;;;;;27.60;14.93;;;10.00;99.90;;;;;;5039556;28;20485;-66
2022/05/03 06:31:50;;;;;;;26.33;15.27;;;10.00;99.90;;;;;;5043558;28;20090;-66
2022/05/03 06:34:16;;;;;;;27.98;14.32;;;10.00;99.90;;;;;;5007924;28;20044;-67
2022/05/03 06:36:42;;;;;;;24.50;12.50;;;10.00;99.90;;;;;;5021360;28;20033;-67
2022/05/03 06:39:08;;;;;;;25.03;13.30;;;10.10;99.90;;;;;;5025582;28;20091;-69
2022/05/03 06:41:33;;;;;;;24.77;13.37;;;10.10;99.90;;;;;;5042321;28;20367;-66
2022/05/03 06:44:00;;;;;;;21.53;11.93;;;10.10;99.90;;;;;;5041011;28;20755;-67
2022/05/03 06:46:26;;;;;;;23.50;11.38;;;10.10;99.90;;;;;;5038443;28;20048;-67
2022/05/03 06:48:52;;;;;;;18.88;11.25;;;10.10;99.90;;;;;;5035452;28;20087;-66
2022/05/03 06:51:18;;;;;;;20.77;9.80;;;10.10;99.90;;;;;;5039004;28;20076;-67
2022/05/03 06:53:44;;;;;;;16.27;7.30;;;10.20;99.90;;;;;;5037390;28;20116;-66
2022/05/03 06:56:09;;;;;;;15.80;5.72;;;10.20;99.90;;;;;;5036214;28;20422;-66
2022/05/03 06:58:35;;;;;;;15.43;6.10;;;10.10;99.90;;;;;;5040357;28;20489;-67
2022/05/03 07:01:08;;;;;;;13.10;4.53;;;10.10;99.90;;;;;;5036811;28;20686;-67
2022/05/03 07:03:34;;;;;;;12.38;4.43;;;10.10;99.90;;;;;;5034065;28;20124;-67
2022/05/03 07:05:59;;;;;;;9.52;3.83;;;10.10;99.90;;;;;;5043672;28;20143;-66
2022/05/03 07:08:25;;;;;;;13.80;3.70;;;10.10;99.90;;;;;;5029473;28;20041;-66
2022/05/03 07:10:51;;;;;;;10.75;4.30;;;10.10;99.90;;;;;;5032226;28;20311;-66
2022/05/03 07:13:23;;;;;;;10.53;4.03;;;10.00;99.90;;;;;;5038856;28;20052;-67
2022/05/03 07:15:56;;;;;;;9.40;3.63;;;10.00;99.90;;;;;;5038054;28;20405;-67
2022/05/03 07:23:52;;;;;;;10.48;3.90;;;10.00;99.90;;;;;;5036554;28;20358;-66
2022/05/03 07:26:21;;;;;;;15.95;4.07;;;10.00;99.90;;;;;;5033065;28;20043;-66
2022/05/03 07:28:48;;;;;;;15.65;4.22;;;10.10;99.90;;;;;;5036352;28;20042;-66
2022/05/03 07:31:18;;;;;;;13.93;4.25;;;10.10;99.90;;;;;;5027173;28;20037;-67
2022/05/03 07:33:45;;;;;;;21.88;3.90;;;10.10;99.90;;;;;;5034086;28;20118;-67
2022/05/03 07:36:10;;;;;;;18.30;5.07;;;10.20;99.90;;;;;;5034816;28;20086;-67
2022/05/03 07:38:36;;;;;;;13.87;4.17;;;10.20;99.90;;;;;;5024766;28;20119;-67
2022/05/03 07:41:02;;;;;;;17.48;5.22;;;10.30;99.90;;;;;;5020392;28;20120;-66
2022/05/03 07:43:28;;;;;;;15.25;4.10;;;10.40;99.90;;;;;;5033850;28;20041;-66
2022/05/03 07:45:54;;;;;;;15.20;4.67;;;10.40;99.90;;;;;;5043895;28;20037;-67
2022/05/03 07:48:20;;;;;;;14.95;4.13;;;10.50;99.90;;;;;;5020551;28;20160;-67
2022/05/03 07:50:46;;;;;;;10.40;4.00;;;10.50;99.90;;;;;;5032261;28;20089;-67
2022/05/03 07:53:11;;;;;;;13.55;4.05;;;10.60;99.90;;;;;;5036986;28;20041;-66
2022/05/03 07:55:37;;;;;;;10.13;3.90;;;10.50;99.90;;;;;;5041269;28;20106;-66
2022/05/03 07:58:03;;;;;;;16.30;3.50;;;10.50;99.90;;;;;;5030028;28;20124;-67
2022/05/03 08:00:28;;;;;;;13.32;4.00;;;10.50;99.90;;;;;;5039826;28;20351;-67
2022/05/03 08:02:54;;;;;;;18.00;3.73;;;10.50;99.90;;;;;;5038781;28;20582;-67
2022/05/03 08:05:20;;;;;;;16.10;4.00;;;10.60;99.90;;;;;;5033588;28;20087;-67
2022/05/03 08:07:46;;;;;;;13.57;3.30;;;10.50;99.90;;;;;;5023851;28;20095;-67
2022/05/03 08:10:12;;;;;;;9.55;3.75;;;10.50;99.90;;;;;;5038536;28;20043;-67
2022/05/03 08:12:38;;;;;;;17.48;3.63;;;10.50;99.90;;;;;;5028818;28;20033;-67
2022/05/03 08:15:04;;;;;;;18.67;4.33;;;10.50;99.90;;;;;;5041273;28;20042;-66
2022/05/03 08:17:31;;;;;;;16.40;3.20;;;10.50;99.90;;;;;;5043704;28;20091;-66
2022/05/03 08:19:57;;;;;;;;;;;10.60;99.90;;;;;;5036040;28;20571;-66
2022/05/03 08:22:24;;;;;;;11.48;3.13;;;10.60;99.90;;;;;;5043198;28;20390;-67
2022/05/03 08:24:51;;;;;;;14.13;3.88;;;10.60;99.90;;;;;;5025305;28;20052;-66
2022/05/03 08:27:17;;;;;;;16.23;3.50;;;10.60;99.90;;;;;;5025472;28;20128;-66
2022/05/03 08:29:42;;;;;;;14.68;3.67;;;10.60;99.90;;;;;;5032566;28;20175;-66
2022/05/03 08:32:09;;;;;;;14.20;3.23;;;10.60;99.90;;;;;;5050614;28;20048;-66
2022/05/03 08:34:35;;;;;;;9.02;3.10;;;10.60;99.90;;;;;;5038217;28;20143;-66
2022/05/03 08:42:29;;;;;;;12.43;3.97;;;10.60;99.90;;;;;;5036204;28;20045;-66
2022/05/03 08:45:00;;;;;;;13.77;3.30;;;10.60;99.90;;;;;;5036877;28;20461;-66
2022/05/03 08:47:30;;;;;;;10.35;3.33;;;10.60;99.90;;;;;;5024488;28;20057;-66
2022/05/03 08:50:07;;;;;;;14.27;4.60;;;10.60;99.90;;;;;;5034523;28;20288;-66
2022/05/03 08:52:45;;;;;;;12.55;2.60;;;10.70;99.90;;;;;;5029314;28;20041;-66
2022/05/03 08:55:12;;;;;;;10.98;2.97;;;10.70;99.90;;;;;;5039374;28;20111;-67
2022/05/03 08:57:38;;;;;;;17.35;2.80;;;10.70;99.90;;;;;;5046990;28;20437;-66
2022/05/03 09:00:05;;;;;;;13.18;2.80;;;10.70;99.90;;;;;;5029443;28;20048;-65
2022/05/03 09:02:34;;;;;;;15.90;2.83;;;10.80;99.90;;;;;;5027477;28;20354;-66
2022/05/03 09:05:01;;;;;;;16.65;3.25;;;10.80;99.90;;;;;;5038603;28;20040;-66
2022/05/03 09:07:27;;;;;;;12.13;2.13;;;10.80;99.90;;;;;;5046555;28;20335;-66
2022/05/03 09:09:54;;;;;;;16.52;2.90;;;10.90;99.90;;;;;;5037590;28;20052;-66
2022/05/03 09:12:28;;;;;;;10.15;3.15;;;10.90;99.90;;;;;;5027051;28;20278;-66
2022/05/03 09:15:00;;;;;;;6.35;1.98;;;11.00;99.90;;;;;;5042633;28;20036;-66
2022/05/03 09:17:45;;;;;;;10.68;2.40;;;11.00;99.90;;;;;;5027790;28;20048;-66
2022/05/03 09:26:12;;;;;;;13.52;2.10;;;11.20;99.90;;;;;;5023827;28;20057;-67
2022/05/03 09:28:50;;;;;;;10.00;2.35;;;11.30;99.90;;;;;;5020796;28;20034;-67
2022/05/03 09:31:34;;;;;;;6.38;2.20;;;11.40;99.90;;;;;;5039732;28;20037;-67
2022/05/03 09:34:05;;;;;;;6.28;1.85;;;11.40;99.90;;;;;;5042523;28;20039;-67
2022/05/03 09:36:47;;;;;;;11.93;2.60;;;11.40;99.90;;;;;;5032637;28;20083;-67
2022/05/03 09:39:25;;;;;;;15.32;2.38;;;11.50;99.90;;;;;;5037047;28;20051;-66
2022/05/03 09:42:09;;;;;;;10.20;2.10;;;11.60;99.90;;;;;;5033794;28;20049;-68
2022/05/03 09:44:52;;;;;;;9.18;2.47;;;11.60;99.90;;;;;;5045663;28;20153;-67
2022/05/03 09:47:23;;;;;;;12.48;2.15;;;11.70;99.90;;;;;;5041142;28;20045;-66
2022/05/03 09:49:48;;;;;;;6.90;1.95;;;11.70;99.90;;;;;;5039541;28;20045;-67
2022/05/03 09:52:32;;;;;;;7.97;2.20;;;11.70;99.90;;;;;;5026156;28;20068;-66
2022/05/03 09:55:08;;;;;;;8.10;1.70;;;11.70;99.90;;;;;;5030224;28;20124;-67
2022/05/03 09:57:36;;;;;;;9.00;2.00;;;11.70;99.90;;;;;;5042008;28;20384;-67
2022/05/03 10:00:04;;;;;;;8.40;3.10;;;11.70;99.90;;;;;;5036538;28;20477;-66
2022/05/03 10:02:30;;;;;;;11.77;2.17;;;11.80;99.90;;;;;;5000504;28;20041;-65
2022/05/03 10:04:57;;;;;;;9.97;2.40;;;11.80;99.90;;;;;;5039805;28;20063;-66
2022/05/03 10:07:24;;;;;;;10.15;2.28;;;11.80;99.90;;;;;;5015533;28;20073;-67
2022/05/03 10:09:50;;;;;;;6.75;1.70;;;11.90;99.90;;;;;;5002132;28;20501;-67
2022/05/03 10:12:17;;;;;;;9.82;1.70;;;11.90;99.90;;;;;;5038848;28;20465;-67
2022/05/03 10:14:46;;;;;;;7.38;2.90;;;11.90;99.90;;;;;;5040620;28;20048;-67
2022/05/03 10:22:54;;;;;;;8.95;2.22;;;12.00;99.90;;;;;;5036456;28;20041;-66
2022/05/03 10:25:48;;;;;;;12.65;2.63;;;11.90;99.90;;;;;;5045415;28;20094;-66
2022/05/03 10:28:14;;;;;;;11.27;1.80;;;11.90;99.90;;;;;;5046310;28;20040;-66
2022/05/03 10:31:06;;;;;;;9.85;2.70;;;11.90;99.90;;;;;;5020275;28;20032;-67
2022/05/03 10:33:31;;;;;;;9.80;2.17;;;11.90;99.90;;;;;;5018909;28;20524;-68
2022/05/03 10:36:01;;;;;;;13.95;2.28;;;11.90;99.90;;;;;;5040354;28;20037;-68
2022/05/03 10:38:43;;;;;;;7.35;2.25;;;11.90;99.90;;;;;;5030702;28;20045;-67
2022/05/03 10:41:10;;;;;;;8.45;3.00;;;11.90;99.90;;;;;;5035532;28;20037;-68
2022/05/03 10:43:37;;;;;;;8.32;1.67;;;12.10;99.90;;;;;;5011068;28;20048;-67
2022/05/03 10:46:13;;;;;;;13.48;2.17;;;12.10;99.90;;;;;;5006467;28;20119;-67
2022/05/03 10:48:43;;;;;;;9.60;1.60;;;12.20;99.90;;;;;;5039612;28;20342;-67
2022/05/03 10:51:11;;;;;;;7.78;2.28;;;12.20;99.90;;;;;;5019180;28;20048;-66
2022/05/03 10:53:39;;;;;;;6.78;1.83;;;12.30;99.90;;;;;;5019675;28;20141;-68
2022/05/03 10:56:18;;;;;;;8.75;1.52;;;12.30;99.90;;;;;;5040329;28;20048;-68
2022/05/03 10:58:46;;;;;;;6.70;1.63;;;12.40;99.90;;;;;;5019859;28;20544;-68
2022/05/03 11:01:21;;;;;;;9.75;2.72;;;12.40;99.90;;;;;;5030307;28;20314;-68
2022/05/03 11:03:47;;;;;;;12.98;2.63;;;12.40;99.90;;;;;;5036693;28;20390;-68
2022/05/03 11:06:18;;;;;;;7.97;1.60;;;12.30;99.90;;;;;;5040859;28;20037;-68
2022/05/03 11:11:39;;;;;;;8.85;1.95;;;12.50;99.90;;;;;;5036873;28;20072;-68
2022/05/03 11:14:24;;;;;;;4.38;1.38;;;12.60;99.90;;;;;;5012127;28;20037;-68
2022/05/03 11:17:01;;;;;;;5.65;1.35;;;12.70;98.20;;;;;;5040862;28;20347;-66
2022/05/03 11:19:27;;;;;;;5.63;1.33;;;12.60;95.50;;;;;;5031660;28;20121;-68
2022/05/03 11:21:53;;;;;;;3.67;1.33;;;12.60;99.90;;;;;;5028315;28;20375;-66
2022/05/03 11:24:20;;;;;;;6.53;1.73;;;12.60;99.90;;;;;;5031079;28;20038;-67
2022/05/03 11:26:47;;;;;;;6.22;1.40;;;12.80;99.40;;;;;;5040626;28;20047;-66
2022/05/03 11:29:13;;;;;;;7.78;1.30;;;12.80;98.50;;;;;;5038258;28;20048;-66
2022/05/03 11:31:45;;;;;;;6.68;1.83;;;12.80;99.20;;;;;;5039425;28;20511;-67
2022/05/03 11:34:11;;;;;;;4.93;1.25;;;12.90;96.20;;;;;;5040258;28;20321;-67
2022/05/03 11:36:38;;;;;;;6.77;1.70;;;12.90;98.10;;;;;;5035991;28;20514;-67
2022/05/03 11:39:03;;;;;;;7.43;1.55;;;12.90;97.10;;;;;;5039826;28;20036;-67
2022/05/03 11:41:29;;;;;;;9.40;2.13;;;13.00;97.90;;;;;;5037006;28;20048;-68
2022/05/03 11:43:56;;;;;;;8.05;1.95;;;13.10;97.80;;;;;;5029195;28;20433;-68
2022/05/03 11:46:23;;;;;;;6.80;1.60;;;13.20;97.00;;;;;;5039363;28;20040;-68
2022/05/03 11:49:01;;;;;;;6.57;1.90;;;13.10;93.50;;;;;;5033488;28;20041;-67
2022/05/03 11:57:24;;;;;;;3.33;1.40;;;13.00;92.40;;;;;;5041778;28;20147;-68
2022/05/03 11:59:51;;;;;;;3.63;1.25;;;13.10;95.50;;;;;;5044677;28;20511;-68
2022/05/03 12:02:29;;;;;;;8.15;1.70;;;13.30;94.30;;;;;;5040830;28;20188;-68
2022/05/03 12:05:04;;;;;;;4.53;1.65;;;13.40;93.60;;;;;;5042573;28;20087;-67
2022/05/03 12:08:01;;;;;;;4.00;1.23;;;13.50;92.70;;;;;;5034851;28;20106;-67
2022/05/03 12:10:35;;;;;;;9.13;1.65;;;13.50;91.30;;;;;;5016361;28;21007;-68
2022/05/03 12:13:03;;;;;;;5.43;1.55;;;13.50;93.40;;;;;;5031428;28;20061;-67
2022/05/03 12:15:30;;;;;;;6.68;1.30;;;13.60;92.60;;;;;;5023546;28;20407;-67
2022/05/03 12:17:59;;;;;;;;;;;13.60;92.60;;;;;;5044593;28;20053;-67
2022/05/03 12:24:48;;;;;;;;;;;;;;;;;;;;;
2022/05/03 12:27:55;;;;;;;7.85;1.20;;;13.50;92.50;;;;;;4988538;28;20105;-84
2022/05/03 12:30:21;;;;;;;5.60;1.20;;;13.40;91.50;;;;;;5028614;28;20041;-84
2022/05/03 12:36:47;;;;;;;8.13;1.75;;;13.60;90.50;;;;;;5029240;28;20107;-85
2022/05/03 12:39:41;;;;;;;5.88;1.60;;;13.60;90.80;;;;;;5017926;28;20032;-84
2022/05/03 12:42:48;;;;;;;;;;;;;;;;;;;;;
2022/05/03 12:45:42;;;;;;;10.75;1.80;;;13.90;88.70;;;;;;5035687;28;20064;-84
2022/05/03 12:48:39;;;;;;;;;;;;;;;;;;;;;
2022/05/03 12:51:22;;;;;;;8.93;1.98;;;13.80;89.80;;;;;;5040793;28;20056;-83
2022/05/03 12:54:16;;;;;;;6.57;1.55;;;13.90;88.90;;;;;;5009368;28;20044;-84
2022/05/03 13:00:43;;;;;;;;;;;;;;;;;;;;;
2022/05/03 13:11:05;;;;;;;6.32;1.40;;;14.40;74.00;;;;;;4919476;29;20103;-83
2022/05/03 13:14:13;;;;;;;5.63;1.30;;;14.30;74.50;;;;;;5016501;28;20091;-83
2022/05/03 13:16:54;;;;;;;5.65;1.63;;;14.30;79.50;;;;;;5002169;28;20105;-84
2022/05/03 13:19:45;;;;;;;4.93;1.30;;;14.30;78.30;;;;;;5002999;28;20056;-83
2022/05/03 13:22:11;;;;;;;8.30;1.40;;;14.30;76.90;;;;;;4994616;28;20264;-83
2022/05/03 13:24:39;;;;;;;5.28;1.40;;;14.30;76.70;;;;;;5000395;28;20322;-84
2022/05/03 13:27:23;;;;;;;5.13;1.55;;;14.30;76.70;;;;;;5002310;28;20037;-83
2022/05/03 13:29:58;;;;;;;6.60;1.35;;;14.30;73.70;;;;;;5015719;28;20045;-83
2022/05/03 13:40:39;;;;;;;6.63;1.67;;;14.40;72.50;;;;;;5022092;28;20045;-84
2022/05/03 13:43:48;;;;;;;4.20;1.75;;;14.70;69.70;;;;;;4976743;28;20053;-83
2022/05/03 13:46:17;;;;;;;12.50;2.25;;;14.70;66.00;;;;;;4963626;28;20047;-84
2022/05/03 13:49:00;;;;;;;;;;;14.70;70.90;;;;;;4942143;28;20062;-82
2022/05/03 13:51:36;;;;;;;6.45;1.33;;;14.70;64.90;;;;;;5005992;28;19921;-84
2022/05/03 13:54:14;;;;;;;9.07;1.52;;;14.70;70.90;;;;;;5000390;28;20039;-83
2022/05/03 13:57:11;;;;;;;8.13;1.50;;;14.60;67.00;;;;;;5004544;28;20068;-84
2022/05/03 14:00:14;;;;;;;8.33;1.77;;;14.60;70.00;;;;;;5013369;28;20044;-83
2022/05/03 14:02:48;;;;;;;6.57;1.67;;;14.70;68.80;;;;;;4999806;28;20060;-85
2022/05/03 14:05:44;;;;;;;5.22;1.52;;;14.70;67.80;;;;;;4985434;28;20037;-83
2022/05/03 14:08:10;;;;;;;5.15;1.40;;;14.60;64.40;;;;;;4998242;28;20113;-84
2022/05/03 14:10:40;;;;;;;8.75;1.42;;;14.60;68.90;;;;;;4999493;28;20042;-83
2022/05/03 14:14:22;;;;;;;9.63;2.08;;;14.60;68.40;;;;;;5000717;28;20392;-84
2022/05/03 14:16:30;;;;;;;5.55;1.35;;;14.70;65.90;;;;;;4953064;28;20049;-84
2022/05/03 14:19:47;;;;;;;10.20;1.95;;;14.50;67.80;;;;;;4939349;28;20051;-84
2022/05/03 14:22:13;;;;;;;6.28;1.48;;;14.50;67.70;;;;;;5009134;28;20077;-84
2022/05/03 14:25:03;;;;;;;6.13;1.25;;;14.40;69.00;;;;;;5013425;28;20506;-84
2022/05/03 14:28:19;;;;;;;8.05;1.42;;;14.50;68.00;;;;;;5013664;28;20362;-84
2022/05/03 14:30:58;;;;;;;8.23;1.50;;;14.30;66.10;;;;;;4999504;28;20134;-84
2022/05/03 14:34:14;;;;;;;6.60;2.10;;;14.20;66.00;;;;;;5017108;28;20041;-84
2022/05/03 14:37:25;;;;;;;11.10;1.60;;;14.20;68.10;;;;;;4996382;28;20073;-84
2022/05/03 14:43:24;;;;;;;13.95;1.75;;;14.10;70.70;;;;;;4980879;28;20050;-84
2022/05/03 14:46:14;;;;;;;;;;;;;;;;;;;;;
2022/05/03 14:48:51;;;;;;;4.47;1.25;;;14.00;68.10;;;;;;4959148;28;19937;-83
2022/05/03 14:52:15;;;;;;;;;;;;;;;;;;;;;
2022/05/03 14:55:00;;;;;;;5.65;1.63;;;13.80;67.20;;;;;;5018457;28;20046;-83
2022/05/03 15:04:41;;;;;;;9.25;1.80;;;13.60;70.20;;;;;;4906319;28;20445;-84
2022/05/03 15:07:27;;;;;;;7.03;1.80;;;13.50;71.00;;;;;;4994574;28;20052;-84
2022/05/03 15:13:19;;;;;;;7.35;2.10;;;13.50;73.20;;;;;;5009975;28;20061;-83
2022/05/03 15:16:07;;;;;;;4.30;1.40;;;13.60;73.30;;;;;;5000726;28;20111;-85
2022/05/03 15:18:32;;;;;;;3.78;1.10;;;13.70;73.20;;;;;;4996184;28;20135;-85
2022/05/03 15:21:26;;;;;;;7.07;1.45;;;13.70;72.70;;;;;;4998252;28;20065;-84
2022/05/03 15:26:36;;;;;;;4.60;1.27;;;13.70;71.40;;;;;;5023579;28;20045;-84
2022/05/03 15:33:59;;;;;;;8.00;1.90;;;13.60;68.30;;;;;;4942399;29;20051;-86
2022/05/03 15:36:26;;;;;;;8.00;1.73;;;13.50;68.80;;;;;;4968163;28;20163;-84
2022/05/03 15:38:51;;;;;;;7.78;1.90;;;13.50;71.80;;;;;;5039180;28;20049;-84
2022/05/03 15:41:20;;;;;;;3.22;1.30;;;13.40;72.30;;;;;;5008070;28;20042;-84
2022/05/03 15:44:08;;;;;;;7.22;1.40;;;13.40;71.90;;;;;;5000559;28;20079;-85
2022/05/03 15:47:16;;;;;;;4.75;1.50;;;13.40;72.50;;;;;;5000365;28;20327;-84
2022/05/03 15:49:55;;;;;;;5.30;1.38;;;13.30;70.50;;;;;;5003826;28;20201;-85
2022/05/03 15:53:11;;;;;;;;;;;;;;;;;;;;;
2022/05/03 15:56:09;;;;;;;7.03;1.40;;;13.20;71.20;;;;;;5040708;28;20038;-84
2022/05/03 15:58:38;;;;;;;8.82;2.03;;;13.20;72.50;;;;;;5021613;28;20518;-84
2022/05/03 16:01:05;;;;;;;5.70;1.48;;;13.10;72.10;;;;;;4988147;28;20044;-84
2022/05/03 16:03:36;;;;;;;8.02;1.60;;;13.10;73.30;;;;;;5002564;28;20041;-84
2022/05/03 16:06:27;;;;;;;10.18;1.40;;;13.00;72.20;;;;;;5003214;28;20041;-84
2022/05/03 16:09:24;;;;;;;4.55;1.35;;;13.00;73.90;;;;;;5008348;28;20084;-85
2022/05/03 16:12:22;;;;;;;7.88;1.65;;;13.00;76.50;;;;;;5007136;28;20042;-85